Time;durP1;ratioP1;P1;durP2;ratioP2;P2;SDS_P1;SDS_P2;PMS_P1;PMS_P2;Temp;Humidity;BMP_temperature;BMP_pressure;BME280_temperature;BME280_humidity;BME280_pressure;Samples;Min_cycle;Max_cycle;Signal;HPM_P1;HPM_P2
2022/04/23 00:00:50;;;;;;;;;;;11.00;1.00;;;;;;6282862;22;19911;-80
2022/04/23 00:03:18;;;;;;;;;;;10.90;1.00;;;;;;6281515;22;19908;-79
2022/04/23 00:05:46;;;;;;;;;;;10.90;1.00;;;;;;6278666;22;19908;-79
2022/04/23 00:08:12;;;;;;;;;;;10.80;1.00;;;;;;6277976;22;19946;-79
2022/04/23 00:10:37;;;;;;;;;;;10.70;60.70;;;;;;6280738;22;19907;-79
2022/04/23 00:13:04;;;;;;;;;;;10.70;99.90;;;;;;6282712;22;19960;-79
2022/04/23 00:15:36;;;;;;;;;;;10.70;99.90;;;;;;6276511;22;20233;-79
2022/04/23 00:18:02;;;;;;;;;;;10.60;1.00;;;;;;6278689;22;19985;-79
2022/04/23 00:20:29;;;;;;;;;;;10.50;99.90;;;;;;6277255;22;19938;-79
2022/04/23 00:22:57;;;;;;;;;;;10.50;99.90;;;;;;6308836;22;19934;-82
2022/04/23 00:25:45;;;;;;;;;;;10.50;1.00;;;;;;6346875;22;20339;-82
2022/04/23 00:28:29;;;;;;;;;;;10.40;99.90;;;;;;6345981;22;19906;-82
2022/04/23 00:31:04;;;;;;;;;;;10.50;99.90;;;;;;6346476;22;19902;-82
2022/04/23 00:36:20;;;;;;;;;;;10.40;99.90;;;;;;6316343;22;20162;-82
2022/04/23 00:39:09;;;;;;;;;;;10.40;1.00;;;;;;6315354;22;19929;-82
2022/04/23 00:41:52;;;;;;;;;;;10.40;1.00;;;;;;6314877;22;19903;-81
2022/04/23 00:44:18;;;;;;;;;;;10.30;1.00;;;;;;6315743;22;19910;-82
2022/04/23 00:46:51;;;;;;;;;;;10.30;83.50;;;;;;6288288;22;19910;-83
2022/04/23 00:49:24;;;;;;;;;;;10.30;99.90;;;;;;6315281;22;19934;-81
2022/04/23 00:51:52;;;;;;;;;;;10.30;99.90;;;;;;6288133;22;19993;-81
2022/04/23 00:54:18;;;;;;;;;;;10.20;99.90;;;;;;6288045;22;20004;-81
2022/04/23 00:56:44;;;;;;;;;;;10.20;90.40;;;;;;6287762;22;19909;-82
2022/04/23 00:59:13;;;;;;;;;;;10.20;99.90;;;;;;6315145;22;19934;-82
2022/04/23 01:02:07;;;;;;;;;;;;;;;;;;;;;
2022/04/23 01:04:30;;;;;;;;;;;10.10;99.90;;;;;;6312284;22;19910;-81
2022/04/23 01:07:06;;;;;;;;;;;;;;;;;;;;;
2022/04/23 01:09:34;;;;;;;;;;;10.10;1.00;;;;;;6315058;22;20353;-82
2022/04/23 01:12:00;;;;;;;;;;;10.00;99.90;;;;;;6315065;22;19903;-81
2022/04/23 01:14:28;;;;;;;;;;;10.00;99.90;;;;;;6287621;22;19913;-81
2022/04/23 01:16:59;;;;;;;;;;;10.00;99.90;;;;;;6287832;22;20009;-81
2022/04/23 01:19:25;;;;;;;;;;;9.90;1.00;;;;;;6288083;22;19978;-82
2022/04/23 01:21:56;;;;;;;;;;;9.90;1.00;;;;;;6314616;22;19910;-81
2022/04/23 01:24:31;;;;;;;;;;;9.90;61.10;;;;;;6257235;22;19943;-81
2022/04/23 01:27:00;;;;;;;;;;;9.90;99.90;;;;;;6283744;22;19982;-81
2022/04/23 01:32:21;;;;;;;;;;;;;;;;;;;;;
2022/04/23 01:34:57;;;;;;;;;;;9.80;99.90;;;;;;6284924;22;19934;-82
2022/04/23 01:37:22;;;;;;;;;;;9.80;99.90;;;;;;6295725;22;19914;-82
2022/04/23 01:39:53;;;;;;;;;;;9.80;12.30;;;;;;6270908;22;19911;-82
2022/04/23 01:42:22;;;;;;;;;;;9.70;99.90;;;;;;6258564;22;19991;-82
2022/04/23 01:44:48;;;;;;;;;;;9.70;99.90;;;;;;6285905;22;19903;-82
2022/04/23 01:47:27;;;;;;;;;;;;;;;;;;;;;
2022/04/23 01:49:55;;;;;;;;;;;9.60;1.00;;;;;;6284790;22;19942;-82
2022/04/23 01:52:21;;;;;;;;;;;9.50;1.00;;;;;;6283475;22;19903;-82
2022/04/23 01:54:47;;;;;;;;;;;9.50;1.00;;;;;;6256513;22;19910;-81
2022/04/23 01:57:12;;;;;;;;;;;9.50;1.00;;;;;;6284287;22;19990;-81
2022/04/23 01:59:40;;;;;;;;;;;9.50;1.00;;;;;;6257647;22;19911;-82
2022/04/23 02:02:06;;;;;;;;;;;9.40;1.00;;;;;;6256761;22;20013;-81
2022/04/23 02:04:35;;;;;;;;;;;9.40;1.00;;;;;;6283774;22;19914;-82
2022/04/23 02:07:00;;;;;;;;;;;9.40;1.00;;;;;;6283786;22;19903;-81
2022/04/23 02:09:26;;;;;;;;;;;9.40;24.00;;;;;;6284120;22;19913;-83
2022/04/23 02:11:59;;;;;;;;;;;9.40;1.00;;;;;;6284079;22;19903;-82
2022/04/23 02:14:44;;;;;;;;;;;9.40;1.00;;;;;;6283845;22;19900;-82
2022/04/23 02:17:33;;;;;;;;;;;9.30;1.00;;;;;;6256513;22;19911;-82
2022/04/23 02:20:08;;;;;;;;;;;9.20;1.00;;;;;;6256751;22;19903;-82
2022/04/23 02:22:37;;;;;;;;;;;9.10;1.00;;;;;;6283539;22;20295;-82
2022/04/23 02:25:05;;;;;;;;;;;9.10;99.90;;;;;;6283987;22;20353;-82
2022/04/23 02:27:41;;;;;;;;;;;9.00;99.90;;;;;;6255557;22;19911;-82
2022/04/23 02:30:07;;;;;;;;;;;9.00;1.00;;;;;;6256885;22;19927;-82
2022/04/23 02:32:33;;;;;;;;;;;8.90;1.00;;;;;;6256509;22;19965;-82
2022/04/23 02:35:01;;;;;;;;;;;8.90;1.00;;;;;;6256453;22;19907;-82
2022/04/23 02:37:32;;;;;;;;;;;8.80;1.00;;;;;;6255839;22;19937;-82
2022/04/23 02:39:57;;;;;;;;;;;8.80;11.00;;;;;;6256966;22;20156;-81
2022/04/23 02:42:44;;;;;;;;;;;8.80;95.70;;;;;;6256221;22;19922;-82
2022/04/23 02:45:11;;;;;;;;;;;8.70;99.90;;;;;;6261987;22;19914;-82
2022/04/23 02:47:52;;;;;;;;;;;8.70;99.90;;;;;;6281312;22;19903;-82
2022/04/23 02:50:25;;;;;;;;;;;8.70;99.90;;;;;;6256363;22;20352;-82
2022/04/23 02:52:57;;;;;;;;;;;8.60;99.90;;;;;;6257020;22;19907;-82
2022/04/23 02:55:35;;;;;;;;;;;8.60;99.90;;;;;;6283535;22;20241;-84
2022/04/23 02:58:04;;;;;;;;;;;8.60;99.90;;;;;;6255844;22;19907;-82
2022/04/23 03:00:33;;;;;;;;;;;8.60;99.90;;;;;;6283005;22;19961;-82
2022/04/23 03:02:59;;;;;;;;;;;8.60;99.90;;;;;;6256468;22;19915;-82
2022/04/23 03:05:27;;;;;;;;;;;8.50;99.90;;;;;;6255774;22;19907;-82
2022/04/23 03:08:03;;;;;;;;;;;;;;;;;;;;;
2022/04/23 03:10:31;;;;;;;;;;;8.50;99.90;;;;;;6282569;22;19934;-82
2022/04/23 03:12:57;;;;;;;;;;;8.50;1.00;;;;;;6257642;22;19908;-82
2022/04/23 03:15:26;;;;;;;;;;;8.50;1.00;;;;;;6256609;22;20440;-82
2022/04/23 03:18:02;;;;;;;;;;;8.50;1.00;;;;;;6283698;22;19907;-82
2022/04/23 03:20:41;;;;;;;;;;;;;;;;;;;;;
2022/04/23 03:23:12;;;;;;;;;;;8.50;99.90;;;;;;6282485;22;19938;-82
2022/04/23 03:25:43;;;;;;;;;;;8.50;99.90;;;;;;6256245;22;20223;-82
2022/04/23 03:28:13;;;;;;;;;;;8.50;99.90;;;;;;6282770;22;19907;-82
2022/04/23 03:30:42;;;;;;;;;;;8.50;99.90;;;;;;6255504;22;19929;-82
2022/04/23 03:33:10;;;;;;;;;;;8.50;99.90;;;;;;6283564;22;19949;-82
2022/04/23 03:35:35;;;;;;;;;;;8.50;99.90;;;;;;6282900;22;20252;-83
2022/04/23 03:38:03;;;;;;;;;;;8.50;99.90;;;;;;6255079;22;19907;-81
2022/04/23 03:40:29;;;;;;;;;;;8.50;99.90;;;;;;6255680;22;19965;-81
2022/04/23 03:42:57;;;;;;;;;;;8.50;99.90;;;;;;6283371;22;19907;-82
2022/04/23 03:45:28;;;;;;;;;;;8.40;99.90;;;;;;6284132;22;20286;-82
2022/04/23 03:47:55;;;;;;;;;;;8.40;1.00;;;;;;6283108;22;19923;-82
2022/04/23 03:50:21;;;;;;;;;;;8.40;1.00;;;;;;6283380;22;19945;-82
2022/04/23 03:52:47;;;;;;;;;;;8.40;1.00;;;;;;6283077;22;19904;-82
2022/04/23 03:55:15;;;;;;;;;;;8.40;1.00;;;;;;6283312;22;20222;-82
2022/04/23 03:57:58;;;;;;;;;;;;;;;;;;;;;
2022/04/23 04:00:44;;;;;;;;;;;8.40;1.00;;;;;;6283288;22;20282;-82
2022/04/23 04:03:12;;;;;;;;;;;8.30;1.00;;;;;;6255758;22;19903;-82
2022/04/23 04:05:37;;;;;;;;;;;8.30;1.00;;;;;;6252965;23;19933;-82
2022/04/23 04:08:03;;;;;;;;;;;8.30;1.00;;;;;;6226464;23;19935;-82
2022/04/23 04:10:31;;;;;;;;;;;8.30;1.00;;;;;;6254534;23;19903;-82
2022/04/23 04:12:59;;;;;;;;;;;8.30;1.00;;;;;;6227695;23;19908;-82
2022/04/23 04:15:27;;;;;;;;;;;8.40;1.00;;;;;;6253961;23;19911;-82
2022/04/23 04:18:01;;;;;;;;;;;8.30;1.00;;;;;;6252725;22;19907;-82
2022/04/23 04:20:32;;;;;;;;;;;8.30;1.00;;;;;;6254115;23;19904;-83
2022/04/23 04:23:00;;;;;;;;;;;8.30;1.00;;;;;;6269402;22;19915;-82
2022/04/23 04:25:26;;;;;;;;;;;8.30;1.00;;;;;;6258120;22;19907;-82
2022/04/23 04:27:54;;;;;;;;;;;8.30;1.00;;;;;;6284971;22;19904;-82
2022/04/23 04:30:22;;;;;;;;;;;8.40;1.00;;;;;;6285499;22;19911;-82
2022/04/23 04:32:48;;;;;;;;;;;8.40;1.00;;;;;;6257623;22;19929;-82
2022/04/23 04:35:18;;;;;;;;;;;8.40;1.00;;;;;;6257035;22;19903;-81
2022/04/23 04:37:44;;;;;;;;;;;8.50;1.00;;;;;;6284563;22;19907;-82
2022/04/23 04:40:12;;;;;;;;;;;8.50;1.00;;;;;;6284783;22;19903;-82
2022/04/23 04:42:46;;;;;;;;;;;8.50;1.00;;;;;;6257328;22;20329;-83
2022/04/23 04:45:13;;;;;;;;;;;8.60;1.00;;;;;;6257256;22;19950;-82
2022/04/23 04:47:39;;;;;;;;;;;8.60;1.00;;;;;;6283057;22;19904;-82
2022/04/23 04:50:10;;;;;;;;;;;8.60;1.00;;;;;;6257443;22;20349;-82
2022/04/23 04:52:36;;;;;;;;;;;8.60;1.00;;;;;;6284411;22;19931;-83
2022/04/23 04:55:11;;;;;;;;;;;8.60;99.90;;;;;;6284143;22;20175;-82
2022/04/23 04:57:50;;;;;;;;;;;;;;;;;;;;;
2022/04/23 05:00:18;;;;;;;;;;;8.70;99.90;;;;;;6292792;22;19903;-82
2022/04/23 05:02:44;;;;;;;;;;;8.80;99.90;;;;;;6284638;22;19903;-83
2022/04/23 05:05:09;;;;;;;;;;;8.80;99.90;;;;;;6285092;22;19926;-83
2022/04/23 05:07:35;;;;;;;;;;;8.90;99.90;;;;;;6257095;22;19907;-82
2022/04/23 05:10:06;;;;;;;;;;;9.00;99.90;;;;;;6283649;22;19903;-83
2022/04/23 05:12:41;;;;;;;;;;;9.20;99.90;;;;;;6283901;22;20328;-82
2022/04/23 05:15:16;;;;;;;;;;;;;;;;;;;;;
2022/04/23 05:20:38;;;;;;;;;;;9.80;72.10;;;;;;6277760;22;19903;-83
2022/04/23 05:25:53;;;;;;;;;;;13.00;1.00;;;;;;6263295;22;19903;-83
2022/04/23 05:28:46;;;;;;;;;;;;;;;;;;;;;
2022/04/23 05:31:32;;;;;;;;;;;15.60;1.00;;;;;;6284507;22;19930;-83
2022/04/23 05:34:00;;;;;;;;;;;16.60;99.90;;;;;;6284799;22;19907;-83
2022/04/23 05:36:26;;;;;;;;;;;17.70;99.90;;;;;;6284097;22;19910;-82
2022/04/23 05:38:54;;;;;;;;;;;18.60;99.90;;;;;;6282226;22;20217;-82
2022/04/23 05:41:20;;;;;;;;;;;19.40;99.90;;;;;;6256397;22;20322;-82
2022/04/23 05:43:48;;;;;;;;;;;19.80;99.90;;;;;;6283491;22;19903;-83
2022/04/23 05:46:15;;;;;;;;;;;20.70;99.90;;;;;;6256773;22;19904;-82
2022/04/23 05:48:41;;;;;;;;;;;21.40;99.90;;;;;;6281578;22;19907;-82
2022/04/23 05:51:13;;;;;;;;;;;22.60;99.90;;;;;;6256799;22;19909;-82
2022/04/23 05:53:39;;;;;;;;;;;23.60;99.90;;;;;;6283621;22;19903;-80
2022/04/23 05:56:05;;;;;;;;;;;24.30;99.90;;;;;;6255951;22;19914;-80
2022/04/23 05:58:35;;;;;;;;;;;25.30;99.90;;;;;;6283162;22;19904;-80
2022/04/23 06:01:01;;;;;;;;;;;26.40;99.90;;;;;;6257055;22;19911;-80
2022/04/23 06:03:27;;;;;;;;;;;27.30;99.90;;;;;;6256392;22;19934;-80
2022/04/23 06:05:52;;;;;;;;;;;28.00;99.90;;;;;;6283932;22;19903;-81
2022/04/23 06:08:20;;;;;;;;;;;28.90;99.90;;;;;;6282027;22;19911;-81
2022/04/23 06:10:46;;;;;;;;;;;29.50;99.90;;;;;;6284077;22;20316;-81
2022/04/23 06:13:14;;;;;;;;;;;30.70;99.90;;;;;;6256815;22;19903;-81
2022/04/23 06:15:42;;;;;;;;;;;31.50;99.90;;;;;;6284676;22;20288;-81
2022/04/23 06:18:10;;;;;;;;;;;31.50;99.90;;;;;;6284122;22;19907;-81
2022/04/23 06:20:35;;;;;;;;;;;32.20;99.90;;;;;;6256472;22;20050;-81
2022/04/23 06:25:52;;;;;;;;;;;31.40;99.90;;;;;;6280116;22;20342;-86
2022/04/23 06:28:20;;;;;;;;;;;32.10;99.90;;;;;;6279518;22;19911;-87
2022/04/23 06:30:45;;;;;;;;;;;32.10;99.90;;;;;;6279236;22;19907;-85
2022/04/23 06:33:21;;;;;;;;;;;;;;;;;;;;;
2022/04/23 06:36:13;;;;;;;;;;;32.60;99.90;;;;;;6245991;22;19990;-85
2022/04/23 06:38:41;;;;;;;;;;;33.10;99.90;;;;;;6239660;22;19962;-85
2022/04/23 06:41:07;;;;;;;;;;;33.20;99.90;;;;;;6250595;22;19991;-86
2022/04/23 06:43:32;;;;;;;;;;;32.50;99.90;;;;;;6248907;22;19904;-86
2022/04/23 06:45:59;;;;;;;;;;;32.70;99.90;;;;;;6249206;22;19910;-84
2022/04/23 06:48:25;;;;;;;;;;;33.30;99.90;;;;;;6248326;22;20338;-85
2022/04/23 06:50:50;;;;;;;;;;;33.30;99.90;;;;;;6248421;22;19907;-87
2022/04/23 06:53:16;;;;;;;;;;;33.90;99.90;;;;;;6273043;22;19911;-85
2022/04/23 06:55:41;;;;;;;;;;;34.30;99.90;;;;;;6250192;22;20389;-88
2022/04/23 06:58:07;;;;;;;;;;;35.90;99.90;;;;;;6248885;22;19954;-84
2022/04/23 07:00:32;;;;;;;;;;;34.80;99.90;;;;;;6249069;22;19903;-84
2022/04/23 07:02:57;;;;;;;;;;;34.10;99.90;;;;;;6249463;22;19904;-84
2022/04/23 07:05:23;;;;;;;;;;;33.80;99.90;;;;;;6248863;22;19949;-83
2022/04/23 07:08:01;;;;;;;;;;;33.60;99.90;;;;;;6272714;22;19904;-84
2022/04/23 07:10:28;;;;;;;;;;;33.30;99.90;;;;;;6249187;22;19903;-82
2022/04/23 07:12:54;;;;;;;;;;;33.50;99.90;;;;;;6272224;22;19957;-82
2022/04/23 07:15:19;;;;;;;;;;;33.80;99.90;;;;;;6252626;22;19903;-83
2022/04/23 07:17:49;;;;;;;;;;;34.10;99.90;;;;;;6251397;22;20319;-83
2022/04/23 07:20:17;;;;;;;;;;;33.10;99.90;;;;;;6249185;22;19907;-82
2022/04/23 07:24:02;;;;;;;;;;;32.90;99.90;;;;;;6248135;22;19966;-84
2022/04/23 07:25:37;;;;;;;;;;;32.60;99.90;;;;;;6277868;22;19990;-85
2022/04/23 07:28:03;;;;;;;;;;;32.40;99.90;;;;;;6278172;22;19915;-86
2022/04/23 07:30:29;;;;;;;;;;;31.60;99.90;;;;;;6251351;22;19904;-83
2022/04/23 07:32:55;;;;;;;;;;;31.10;99.90;;;;;;6278152;22;19907;-83
2022/04/23 07:38:12;;;;;;;;;;;30.50;99.90;;;;;;6277958;22;19914;-83
2022/04/23 07:40:40;;;;;;;;;;;30.50;99.90;;;;;;6278826;22;19907;-83
2022/04/23 07:43:12;;;;;;;;;;;30.70;99.90;;;;;;6279303;22;19911;-83
2022/04/23 07:45:38;;;;;;;;;;;30.60;99.90;;;;;;6280837;22;19986;-83
2022/04/23 07:48:04;;;;;;;;;;;31.60;99.90;;;;;;6279389;22;20354;-83
2022/04/23 07:50:30;;;;;;;;;;;34.10;99.90;;;;;;6279938;22;19904;-83
2022/04/23 07:52:56;;;;;;;;;;;33.90;99.90;;;;;;6252879;22;19903;-83
2022/04/23 07:55:21;;;;;;;;;;;33.10;99.90;;;;;;6277759;22;20309;-84
2022/04/23 07:57:46;;;;;;;;;;;32.20;99.90;;;;;;6281867;22;20313;-84
2022/04/23 08:00:12;;;;;;;;;;;30.80;99.90;;;;;;6283196;22;19911;-84
2022/04/23 08:02:38;;;;;;;;;;;31.20;99.90;;;;;;6281802;22;19904;-84
2022/04/23 08:05:03;;;;;;;;;;;30.70;99.90;;;;;;6281932;22;19930;-83
2022/04/23 08:07:29;;;;;;;;;;;31.80;99.90;;;;;;6284968;22;19907;-84
2022/04/23 08:09:54;;;;;;;;;;;32.50;99.90;;;;;;6284219;22;19926;-84
2022/04/23 08:12:20;;;;;;;;;;;33.10;99.90;;;;;;6286713;22;20233;-85
2022/04/23 08:14:45;;;;;;;;;;;33.00;99.90;;;;;;6279244;22;19926;-84
2022/04/23 08:17:11;;;;;;;;;;;34.00;99.90;;;;;;6285129;22;19907;-83
2022/04/23 08:19:37;;;;;;;;;;;32.90;99.90;;;;;;6285577;22;19903;-83
2022/04/23 08:22:03;;;;;;;;;;;33.30;99.90;;;;;;6286833;22;19908;-83
2022/04/23 08:24:30;;;;;;;;;;;33.20;99.90;;;;;;6279199;22;19927;-84
2022/04/23 08:26:56;;;;;;;;;;;32.40;99.90;;;;;;6260119;23;19904;-84
2022/04/23 08:32:05;;;;;;;;;;;30.90;99.90;;;;;;6259014;23;19911;-85
2022/04/23 08:34:31;;;;;;;;;;;30.10;99.90;;;;;;6258139;22;19904;-85
2022/04/23 08:36:57;;;;;;;;;;;30.30;99.90;;;;;;6232192;23;19931;-85
2022/04/23 08:39:22;;;;;;;;;;;29.60;99.90;;;;;;6259123;23;19903;-85
2022/04/23 08:41:48;;;;;;;;;;;31.20;99.90;;;;;;6262473;23;20322;-85
2022/04/23 08:44:16;;;;;;;;;;;32.30;99.90;;;;;;6268141;22;19914;-85
2022/04/23 08:46:41;;;;;;;;;;;33.40;99.90;;;;;;6281722;22;20029;-85
2022/04/23 08:49:09;;;;;;;;;;;34.60;99.90;;;;;;6255849;23;19904;-85
2022/04/23 08:51:34;;;;;;;;;;;33.70;99.90;;;;;;6254964;23;20182;-86
2022/04/23 08:54:07;;;;;;;;;;;33.90;99.90;;;;;;6254435;22;19927;-86
2022/04/23 08:56:33;;;;;;;;;;;33.20;99.90;;;;;;6254233;23;19911;-85
2022/04/23 08:58:59;;;;;;;;;;;33.00;99.90;;;;;;6258309;23;19908;-84
2022/04/23 09:01:25;;;;;;;;;;;32.40;99.90;;;;;;6258591;23;19912;-85
2022/04/23 09:03:50;;;;;;;;;;;32.40;99.90;;;;;;6259768;22;19925;-84
2022/04/23 09:06:16;;;;;;;;;;;31.30;99.90;;;;;;6258262;23;19982;-88
2022/04/23 09:09:04;;;;;;;;;;;30.20;99.90;;;;;;6257582;23;19904;-83
2022/04/23 09:11:37;;;;;;;;;;;31.40;99.90;;;;;;6259644;23;20288;-84
2022/04/23 09:14:06;;;;;;;;;;;31.00;99.90;;;;;;6280788;22;19935;-85
2022/04/23 09:25:02;;;;;;;;;;;33.10;99.90;;;;;;6285090;22;19921;-84
2022/04/23 09:27:30;;;;;;;;;;;31.80;99.90;;;;;;6291195;22;19903;-85
2022/04/23 09:29:56;;;;;;;;;;;32.70;99.90;;;;;;6290439;22;19911;-86
2022/04/23 09:32:22;;;;;;;;;;;33.00;99.90;;;;;;6292562;22;19929;-85
2022/04/23 09:35:02;;;;;;;;;;;33.70;99.90;;;;;;6291167;22;19907;-85
2022/04/23 09:38:11;;;;;;;;;;;33.10;99.90;;;;;;6291353;22;19907;-85
2022/04/23 09:40:17;;;;;;;;;;;33.50;99.90;;;;;;6290626;22;20416;-84
2022/04/23 09:42:53;;;;;;;;;;;32.60;99.90;;;;;;6287535;22;19907;-84
2022/04/23 09:45:18;;;;;;;;;;;33.00;99.90;;;;;;6289120;22;19904;-84
2022/04/23 09:47:45;;;;;;;;;;;32.60;99.90;;;;;;6288767;22;19911;-84
2022/04/23 09:50:13;;;;;;;;;;;32.60;99.90;;;;;;6292226;22;19908;-85
2022/04/23 09:52:39;;;;;;;;;;;31.70;99.90;;;;;;6295003;22;19907;-82
2022/04/23 09:55:07;;;;;;;;;;;30.80;99.90;;;;;;6268248;22;19971;-82
2022/04/23 09:57:32;;;;;;;;;;;30.20;99.90;;;;;;6291890;22;19957;-82
2022/04/23 09:59:58;;;;;;;;;;;30.40;99.90;;;;;;6293921;22;19982;-82
2022/04/23 10:02:24;;;;;;;;;;;31.30;99.90;;;;;;6294278;22;19910;-86
2022/04/23 10:04:50;;;;;;;;;;;31.10;99.90;;;;;;6294282;22;19929;-85
2022/04/23 10:07:17;;;;;;;;;;;31.70;99.90;;;;;;6294667;22;19910;-86
2022/04/23 10:09:44;;;;;;;;;;;30.90;99.90;;;;;;6295124;22;19903;-87
2022/04/23 10:12:12;;;;;;;;;;;30.40;99.90;;;;;;6294547;22;19930;-84
2022/04/23 10:14:49;;;;;;;;;;;30.70;99.90;;;;;;6293972;22;19946;-85
2022/04/23 10:17:17;;;;;;;;;;;30.20;99.90;;;;;;6266921;22;19907;-86
2022/04/23 10:19:43;;;;;;;;;;;30.70;99.90;;;;;;6295105;22;20349;-86
2022/04/23 10:22:14;;;;;;;;;;;30.40;99.90;;;;;;6294846;22;19915;-85
2022/04/23 10:24:55;;;;;;;;;;;29.40;99.90;;;;;;6293713;22;19912;-85
2022/04/23 10:27:25;;;;;;;;;;;29.10;99.90;;;;;;6294540;22;19903;-85
2022/04/23 10:29:55;;;;;;;;;;;29.60;99.90;;;;;;6294174;22;19903;-85
2022/04/23 10:32:20;;;;;;;;;;;29.20;99.90;;;;;;6295500;22;19903;-84
2022/04/23 10:34:46;;;;;;;;;;;29.10;99.90;;;;;;6268230;22;19951;-85
2022/04/23 10:37:25;;;;;;;;;;;28.80;99.90;;;;;;6293945;22;19907;-84
2022/04/23 10:39:51;;;;;;;;;;;28.60;99.90;;;;;;6294656;22;19907;-86
2022/04/23 10:42:17;;;;;;;;;;;29.50;99.90;;;;;;6294645;22;20356;-86
2022/04/23 10:44:44;;;;;;;;;;;30.30;99.90;;;;;;6293897;22;19914;-86
2022/04/23 10:47:30;;;;;;;;;;;30.20;99.90;;;;;;6292510;22;19910;-85
2022/04/23 10:52:39;;;;;;;;;;;30.00;99.90;;;;;;6293242;22;19904;-86
2022/04/23 10:55:06;;;;;;;;;;;30.20;99.90;;;;;;6294201;22;19945;-84
2022/04/23 10:57:31;;;;;;;;;;;31.00;99.90;;;;;;6294750;22;19908;-86
2022/04/23 11:00:09;;;;;;;;;;;30.90;99.90;;;;;;6295079;22;19928;-86
2022/04/23 11:02:35;;;;;;;;;;;31.00;99.90;;;;;;6295781;22;19923;-86
2022/04/23 11:13:39;;;;;;;;;;;28.60;99.90;;;;;;6295919;22;19911;-85
2022/04/23 11:16:12;;;;;;;;;;;29.00;99.90;;;;;;6295676;22;19903;-85
2022/04/23 11:18:39;;;;;;;;;;;29.50;99.90;;;;;;6296713;22;19907;-85
2022/04/23 11:21:05;;;;;;;;;;;29.00;99.90;;;;;;6296524;22;19943;-86
2022/04/23 11:23:31;;;;;;;;;;;29.40;99.90;;;;;;6297029;22;19907;-86
2022/04/23 11:25:57;;;;;;;;;;;27.70;99.90;;;;;;6297158;22;19911;-85
2022/04/23 11:28:23;;;;;;;;;;;26.20;99.90;;;;;;6296971;22;20350;-85
2022/04/23 11:30:51;;;;;;;;;;;26.50;99.90;;;;;;6297436;22;19904;-85
2022/04/23 11:33:17;;;;;;;;;;;27.20;99.90;;;;;;6301220;22;19922;-85
2022/04/23 11:35:42;;;;;;;;;;;27.20;99.90;;;;;;6273162;22;20106;-85
2022/04/23 11:38:17;;;;;;;;;;;28.30;99.90;;;;;;6298335;22;19907;-85
2022/04/23 11:40:43;;;;;;;;;;;28.00;99.90;;;;;;6297317;22;19907;-86
2022/04/23 11:43:08;;;;;;;;;;;27.70;99.90;;;;;;6296139;22;19910;-86
2022/04/23 11:45:44;;;;;;;;;;;28.00;99.90;;;;;;6297521;22;19903;-86
2022/04/23 11:48:10;;;;;;;;;;;28.20;99.90;;;;;;6296994;22;19926;-85
2022/04/23 11:50:35;;;;;;;;;;;28.00;99.90;;;;;;6297578;22;19903;-86
2022/04/23 11:53:03;;;;;;;;;;;28.60;99.90;;;;;;6297722;22;19910;-86
2022/04/23 11:55:30;;;;;;;;;;;28.90;99.90;;;;;;6298035;22;19953;-87
2022/04/23 11:57:56;;;;;;;;;;;29.00;99.90;;;;;;6297645;22;19929;-85
2022/04/23 12:00:22;;;;;;;;;;;28.60;99.90;;;;;;6270643;22;19986;-85
2022/04/23 12:02:48;;;;;;;;;;;27.10;99.90;;;;;;6297979;22;19946;-85
2022/04/23 12:05:20;;;;;;;;;;;26.60;99.90;;;;;;6297103;22;19907;-83
2022/04/23 12:07:46;;;;;;;;;;;25.80;99.90;;;;;;6296634;22;19954;-85
2022/04/23 12:10:12;;;;;;;;;;;25.90;99.90;;;;;;6296903;22;19903;-84
2022/04/23 12:12:38;;;;;;;;;;;25.80;99.90;;;;;;6297737;22;19911;-85
2022/04/23 12:15:06;;;;;;;;;;;25.60;99.90;;;;;;6297621;22;19951;-85
2022/04/23 12:17:42;;;;;;;;;;;26.00;99.90;;;;;;6296797;22;19929;-85
2022/04/23 12:20:10;;;;;;;;;;;26.30;99.90;;;;;;6297133;22;19903;-85
2022/04/23 12:22:36;;;;;;;;;;;25.90;99.90;;;;;;6287078;22;19903;-82
2022/04/23 12:25:08;;;;;;;;;;;24.80;99.90;;;;;;6293405;22;19916;-85
2022/04/23 12:27:53;;;;;;;;;;;24.90;99.90;;;;;;6296027;22;19915;-86
2022/04/23 12:41:33;;;;;;;;;;;25.50;99.90;;;;;;6295720;22;19991;-85
2022/04/23 12:44:16;;;;;;;;;;;23.80;99.90;;;;;;6294871;22;19903;-85
2022/04/23 12:46:55;;;;;;;;;;;24.00;99.90;;;;;;6268160;22;19923;-85
2022/04/23 12:49:22;;;;;;;;;;;24.30;99.90;;;;;;6294817;22;19903;-85
2022/04/23 12:51:54;;;;;;;;;;;24.90;99.90;;;;;;6295373;22;20241;-86
2022/04/23 12:54:23;;;;;;;;;;;25.20;99.90;;;;;;6293200;22;19903;-86
2022/04/23 12:56:50;;;;;;;;;;;25.80;99.90;;;;;;6296258;22;19930;-86
2022/04/23 12:59:18;;;;;;;;;;;26.10;99.90;;;;;;6296641;22;19908;-85
2022/04/23 13:01:44;;;;;;;;;;;25.60;99.90;;;;;;6296636;22;19903;-84
2022/04/23 13:04:11;;;;;;;;;;;25.50;99.90;;;;;;6296951;22;19966;-85
2022/04/23 13:09:22;;;;;;;;;;;25.40;99.90;;;;;;6296558;22;19925;-85
2022/04/23 13:11:47;;;;;;;;;;;25.20;99.90;;;;;;6296078;22;19903;-84
2022/04/23 13:14:14;;;;;;;;;;;24.70;99.90;;;;;;6297146;22;19907;-86
2022/04/23 13:16:41;;;;;;;;;;;24.80;99.90;;;;;;6296215;22;20241;-85
2022/04/23 13:19:06;;;;;;;;;;;24.70;99.90;;;;;;6268974;22;19914;-85
2022/04/23 13:21:33;;;;;;;;;;;23.90;99.90;;;;;;6296541;22;19943;-84
2022/04/23 13:23:59;;;;;;;;;;;24.50;99.90;;;;;;6262951;22;19930;-84
2022/04/23 13:26:26;;;;;;;;;;;24.90;99.90;;;;;;6263685;23;20330;-84
2022/04/23 13:28:51;;;;;;;;;;;25.20;99.90;;;;;;6265842;23;19904;-84
2022/04/23 13:31:17;;;;;;;;;;;24.90;99.90;;;;;;6265385;23;20284;-84
2022/04/23 13:33:43;;;;;;;;;;;24.30;99.90;;;;;;6265242;22;19903;-85
2022/04/23 13:36:09;;;;;;;;;;;24.20;99.90;;;;;;6264213;23;19927;-84
2022/04/23 13:38:34;;;;;;;;;;;24.60;99.90;;;;;;6252310;23;19955;-83
2022/04/23 13:41:00;;;;;;;;;;;24.50;99.90;;;;;;6248248;23;19910;-83
2022/04/23 13:43:26;;;;;;;;;;;24.50;99.90;;;;;;6248616;22;19919;-83
2022/04/23 13:45:51;;;;;;;;;;;24.40;99.90;;;;;;6248441;23;19907;-82
2022/04/23 13:48:18;;;;;;;;;;;24.90;99.90;;;;;;6248242;23;20350;-83
2022/04/23 13:50:43;;;;;;;;;;;24.90;99.90;;;;;;6249546;23;20280;-84
2022/04/23 13:53:09;;;;;;;;;;;24.10;99.90;;;;;;6248675;22;20034;-83
2022/04/23 13:55:34;;;;;;;;;;;24.00;99.90;;;;;;6248913;23;20337;-83
2022/04/23 13:58:00;;;;;;;;;;;24.20;99.90;;;;;;6248287;23;19903;-84
2022/04/23 14:00:25;;;;;;;;;;;23.90;99.90;;;;;;6248357;23;19904;-83
2022/04/23 14:11:06;;;;;;;;;;;23.40;99.90;;;;;;6247263;23;19946;-83
2022/04/23 14:13:31;;;;;;;;;;;23.80;99.90;;;;;;6249115;22;19923;-84
2022/04/23 14:15:58;;;;;;;;;;;23.80;99.90;;;;;;6256299;23;19911;-83
2022/04/23 14:18:24;;;;;;;;;;;23.90;99.90;;;;;;6255801;23;19915;-81
2022/04/23 14:20:50;;;;;;;;;;;23.60;99.90;;;;;;6249855;23;19904;-82
2022/04/23 14:23:15;;;;;;;;;;;23.30;99.90;;;;;;6256883;22;19903;-80
2022/04/23 14:25:41;;;;;;;;;;;23.00;99.90;;;;;;6279843;22;19915;-83
2022/04/23 14:28:06;;;;;;;;;;;22.80;99.90;;;;;;6284543;22;19908;-82
2022/04/23 14:30:33;;;;;;;;;;;22.50;99.90;;;;;;6278733;22;19907;-81
2022/04/23 14:32:58;;;;;;;;;;;22.10;99.90;;;;;;6276870;22;19904;-83
2022/04/23 14:35:24;;;;;;;;;;;22.40;99.90;;;;;;6275570;22;19911;-83
2022/04/23 14:37:49;;;;;;;;;;;22.40;99.90;;;;;;6276107;22;20582;-82
2022/04/23 14:40:15;;;;;;;;;;;22.20;99.90;;;;;;6273547;22;19962;-82
2022/04/23 14:42:41;;;;;;;;;;;22.10;99.90;;;;;;6250072;22;19910;-81
2022/04/23 14:45:07;;;;;;;;;;;22.10;99.90;;;;;;6276625;22;19903;-81
2022/04/23 14:47:33;;;;;;;;;;;22.00;99.90;;;;;;6274878;22;20308;-81
2022/04/23 14:50:01;;;;;;;;;;;21.80;99.90;;;;;;6275515;22;19904;-81
2022/04/23 14:55:14;;;;;;;;;;;21.90;99.90;;;;;;6277561;22;19925;-80
2022/04/23 14:57:39;;;;;;;;;;;21.60;99.90;;;;;;6280537;22;19903;-81
2022/04/23 15:00:07;;;;;;;;;;;21.70;99.90;;;;;;6276482;22;19918;-83
2022/04/23 15:02:32;;;;;;;;;;;21.60;99.90;;;;;;6281669;22;19915;-82
2022/04/23 15:04:58;;;;;;;;;;;21.30;99.90;;;;;;6279471;22;20252;-81
2022/04/23 15:07:26;;;;;;;;;;;21.00;99.90;;;;;;6280897;22;19919;-81
2022/04/23 15:09:52;;;;;;;;;;;20.70;99.90;;;;;;6251029;22;19904;-80
2022/04/23 15:12:17;;;;;;;;;;;20.80;99.90;;;;;;6281350;22;19914;-82
2022/04/23 15:14:43;;;;;;;;;;;20.90;99.90;;;;;;6278105;22;19903;-83
2022/04/23 15:17:08;;;;;;;;;;;20.50;99.90;;;;;;6276894;22;19910;-82
2022/04/23 15:19:34;;;;;;;;;;;20.50;99.90;;;;;;6282778;22;19910;-81
2022/04/23 15:21:59;;;;;;;;;;;20.40;99.90;;;;;;6284770;22;19910;-79
2022/04/23 15:24:25;;;;;;;;;;;20.50;99.90;;;;;;6286996;22;19931;-81
2022/04/23 15:26:51;;;;;;;;;;;20.70;99.90;;;;;;6285799;22;19910;-80
2022/04/23 15:29:17;;;;;;;;;;;20.60;99.90;;;;;;6287288;22;19911;-80
2022/04/23 15:31:43;;;;;;;;;;;20.70;99.90;;;;;;6259884;22;19907;-81
2022/04/23 15:34:09;;;;;;;;;;;20.60;99.90;;;;;;6287218;22;19942;-82
2022/04/23 15:36:35;;;;;;;;;;;20.50;99.90;;;;;;6288463;22;19956;-82
2022/04/23 15:39:00;;;;;;;;;;;20.60;99.90;;;;;;6285913;22;19911;-82
2022/04/23 15:41:26;;;;;;;;;;;20.60;99.90;;;;;;6279061;22;19929;-83
2022/04/23 15:43:52;;;;;;;;;;;20.70;99.90;;;;;;6279835;22;19927;-83
2022/04/23 15:46:17;;;;;;;;;;;20.70;99.90;;;;;;6277746;22;19903;-85